createdAt,value
2019-01-28T00:00:25.352Z,99888.55
2019-01-28T00:03:28.975Z,99886.06
2019-01-28T00:06:32.676Z,99890.59
2019-01-28T00:09:36.189Z,99896.40
2019-01-28T00:12:39.825Z,99895.72
2019-01-28T00:15:43.639Z,99895.38
2019-01-28T00:18:47.242Z,99903.42
2019-01-28T00:21:50.949Z,99905.93
2019-01-28T00:24:54.718Z,99912.11
2019-01-28T00:27:58.376Z,99908.78
2019-01-28T00:31:02.065Z,99911.90
2019-01-28T00:34:05.665Z,99913.74
2019-01-28T00:37:09.312Z,99916.82
2019-01-28T00:40:13.098Z,99914.34
2019-01-28T00:43:16.854Z,99911.91
2019-01-28T00:46:20.552Z,99912.37
2019-01-28T00:49:24.176Z,99919.77
2019-01-28T00:52:27.901Z,99917.08
2019-01-28T00:55:31.571Z,99915.32
2019-01-28T00:58:35.177Z,99899.92
2019-01-28T01:01:39.130Z,99903.65
2019-01-28T01:04:42.709Z,99908.38
2019-01-28T01:07:46.429Z,99915.50
2019-01-28T01:10:50.032Z,99927.25
2019-01-28T01:13:53.755Z,99931.28
2019-01-28T01:16:57.362Z,99923.91
2019-01-28T01:20:00.967Z,99926.25
2019-01-28T01:23:04.582Z,99934.11
2019-01-28T01:26:09.213Z,99933.09
2019-01-28T01:29:12.782Z,99930.75
2019-01-28T01:32:16.378Z,99932.96
2019-01-28T01:35:19.999Z,99930.90
2019-01-28T01:38:23.608Z,99931.83
2019-01-28T01:41:27.216Z,99937.22
2019-01-28T01:44:30.819Z,99942.04
2019-01-28T01:47:34.475Z,99945.34
2019-01-28T01:50:38.236Z,99941.24
2019-01-28T01:53:41.878Z,99934.40
2019-01-28T01:56:45.547Z,99935.77
2019-01-28T01:59:49.117Z,99929.52
2019-01-28T02:02:52.748Z,99934.49
2019-01-28T02:05:56.399Z,99932.22
2019-01-28T02:09:00.017Z,99933.08
2019-01-28T02:12:03.693Z,99935.86
2019-01-28T02:15:09.449Z,99930.50
2019-01-28T02:18:13.008Z,99937.05
2019-01-28T02:21:16.706Z,99928.22
2019-01-28T02:24:20.351Z,99932.50
2019-01-28T02:27:23.983Z,99925.86
2019-01-28T02:37:32.774Z,99917.06
2019-01-28T02:40:36.243Z,99921.70
2019-01-28T02:43:39.677Z,99909.37
2019-01-28T02:46:43.190Z,99914.46
2019-01-28T02:49:46.663Z,99915.41
2019-01-28T02:52:50.180Z,99914.97
2019-01-28T02:55:53.685Z,99917.75
2019-01-28T02:58:57.192Z,99909.55
2019-01-28T03:02:00.706Z,99913.65
2019-01-28T03:05:04.535Z,99911.08
2019-01-28T03:08:08.225Z,99906.28
2019-01-28T03:11:11.737Z,99902.79
2019-01-28T03:14:15.324Z,99903.37
2019-01-28T03:17:18.811Z,99892.44
2019-01-28T03:20:22.350Z,99884.14
2019-01-28T03:23:27.570Z,99885.72
2019-01-28T03:26:31.075Z,99892.27
2019-01-28T03:29:34.604Z,99884.35
2019-01-28T03:32:38.205Z,99883.89
2019-01-28T03:35:41.781Z,99881.19
2019-01-28T03:38:45.301Z,99882.74
2019-01-28T03:41:48.795Z,99880.68
2019-01-28T03:44:52.325Z,99878.82
2019-01-28T03:47:55.905Z,99884.39
2019-01-28T03:50:59.436Z,99880.95
2019-01-28T03:54:03.099Z,99883.89
2019-01-28T03:57:06.603Z,99874.30
2019-01-28T04:00:13.348Z,99876.49
2019-01-28T04:03:16.910Z,99875.33
2019-01-28T04:06:20.434Z,99889.39
2019-01-28T04:09:24.004Z,99889.95
2019-01-28T04:12:27.474Z,99888.99
2019-01-28T04:15:32.515Z,99900.57
2019-01-28T04:18:34.631Z,99886.42
2019-01-28T04:21:38.123Z,99892.63
2019-01-28T04:24:41.592Z,99885.10
2019-01-28T04:27:45.177Z,99889.05
2019-01-28T04:30:48.722Z,99894.57
2019-01-28T04:33:52.203Z,99887.24
2019-01-28T04:36:55.720Z,99896.06
2019-01-28T04:39:59.213Z,99894.08
2019-01-28T04:43:02.731Z,99886.56
2019-01-28T04:46:06.219Z,99890.84
2019-01-28T04:49:09.744Z,99893.38
2019-01-28T04:52:13.318Z,99892.32
2019-01-28T04:55:17.048Z,99890.61
2019-01-28T04:58:20.585Z,99882.98
2019-01-28T05:01:24.190Z,99880.85
2019-01-28T05:04:27.768Z,99875.65
2019-01-28T05:07:31.387Z,99881.97
2019-01-28T05:10:35.028Z,99871.56
2019-01-28T05:13:38.675Z,99873.02
2019-01-28T05:16:42.297Z,99871.62
2019-01-28T05:19:45.893Z,99879.73
2019-01-28T05:22:49.511Z,99875.62
2019-01-28T05:25:53.097Z,99869.35
2019-01-28T05:28:56.755Z,99871.09
2019-01-28T05:32:00.471Z,99871.36
2019-01-28T05:35:04.381Z,99866.12
2019-01-28T05:38:08.029Z,99855.07
2019-01-28T05:41:11.713Z,99855.89
2019-01-28T05:44:15.342Z,99858.07
2019-01-28T05:47:18.944Z,99847.06
2019-01-28T05:50:22.571Z,99855.04
2019-01-28T05:53:26.142Z,99848.48
2019-01-28T05:56:29.773Z,99849.55
2019-01-28T05:59:33.354Z,99851.68
2019-01-28T06:02:36.991Z,99851.84
2019-01-28T06:05:40.491Z,99850.60
2019-01-28T06:08:44.077Z,99855.17
2019-01-28T06:11:47.576Z,99860.44
2019-01-28T06:14:51.074Z,99853.38
2019-01-28T06:17:54.603Z,99855.57
2019-01-28T06:20:58.178Z,99854.14
2019-01-28T06:24:01.771Z,99848.68
2019-01-28T06:27:05.431Z,99857.05
2019-01-28T06:30:12.766Z,99851.28
2019-01-28T06:33:16.374Z,99844.02
2019-01-28T06:36:19.979Z,99850.23
2019-01-28T06:39:23.479Z,99854.64
2019-01-28T06:42:27.103Z,99852.36
2019-01-28T06:45:30.730Z,99857.74
2019-01-28T06:48:34.221Z,99853.03
2019-01-28T06:51:37.805Z,99854.08
2019-01-28T06:54:41.405Z,99854.87
2019-01-28T06:57:45.027Z,99865.45
2019-01-28T07:00:48.537Z,99862.85
2019-01-28T07:03:52.104Z,99860.14
2019-01-28T07:06:55.807Z,99863.60
2019-01-28T07:09:59.252Z,99875.33
2019-01-28T07:13:02.795Z,99869.88
2019-01-28T07:16:06.353Z,99868.63
2019-01-28T07:19:09.972Z,99877.66
2019-01-28T07:22:13.526Z,99874.60
2019-01-28T07:25:17.070Z,99871.02
2019-01-28T07:28:20.632Z,99875.32
2019-01-28T07:31:24.201Z,99871.59
2019-01-28T07:34:27.789Z,99875.65
2019-01-28T07:37:31.378Z,99869.74
2019-01-28T07:40:34.989Z,99873.38
2019-01-28T07:43:38.531Z,99878.08
2019-01-28T07:46:42.068Z,99880.17
2019-01-28T07:49:45.592Z,99868.88
2019-01-28T07:52:49.219Z,99873.89
2019-01-28T07:55:52.785Z,99868.75
2019-01-28T07:58:56.086Z,99867.50
2019-01-28T08:01:59.734Z,99872.18
2019-01-28T08:05:03.331Z,99871.01
2019-01-28T08:08:07.006Z,99880.79
2019-01-28T08:11:10.563Z,99881.05
2019-01-28T08:14:14.182Z,99873.00
2019-01-28T08:17:17.718Z,99883.09
2019-01-28T08:20:21.453Z,99872.49
2019-01-28T08:23:25.108Z,99881.97
2019-01-28T08:26:28.678Z,99881.06
2019-01-28T08:29:32.267Z,99872.82
2019-01-28T08:32:35.904Z,99868.29
2019-01-28T08:35:39.495Z,99870.96
2019-01-28T08:38:43.131Z,99871.45
2019-01-28T08:41:46.764Z,99882.59
2019-01-28T08:44:50.218Z,99880.58
2019-01-28T08:51:24.511Z,99874.39
2019-01-28T08:54:27.984Z,99873.92
2019-01-28T08:57:31.595Z,99868.64
2019-01-28T09:00:37.363Z,99870.19
2019-01-28T09:03:40.886Z,99863.22
2019-01-28T09:06:44.414Z,99869.66
2019-01-28T09:09:48.014Z,99867.19
2019-01-28T09:12:51.819Z,99871.96
2019-01-28T09:15:55.550Z,99871.45
2019-01-28T09:18:59.238Z,99878.44
2019-01-28T09:22:02.965Z,99866.80
2019-01-28T09:25:07.432Z,99866.65
2019-01-28T09:28:11.054Z,99866.42
2019-01-28T09:31:14.669Z,99869.05
2019-01-28T09:34:18.221Z,99875.95
2019-01-28T09:37:21.771Z,99877.03
2019-01-28T09:40:26.712Z,99879.19
2019-01-28T09:43:30.222Z,99874.66
2019-01-28T09:46:33.955Z,99885.49
2019-01-28T09:49:37.660Z,99886.83
2019-01-28T09:52:41.300Z,99885.40
2019-01-28T09:55:45.008Z,99887.93
2019-01-28T09:58:48.617Z,99896.90
2019-01-28T10:01:52.195Z,99897.28
2019-01-28T10:04:55.838Z,99900.33
2019-01-28T10:07:59.448Z,99901.33
2019-01-28T10:11:03.116Z,99894.36
2019-01-28T10:14:06.778Z,99900.54
2019-01-28T10:17:10.364Z,99909.18
2019-01-28T10:20:17.984Z,99901.26
2019-01-28T10:23:21.790Z,99897.03
2019-01-28T10:26:25.375Z,99894.85
2019-01-28T10:29:28.894Z,99905.02
2019-01-28T10:32:36.144Z,99894.82
2019-01-28T10:35:36.509Z,99899.50
2019-01-28T10:38:40.320Z,99904.08
2019-01-28T10:41:44.046Z,99903.27
2019-01-28T10:44:48.724Z,99904.79
2019-01-28T10:51:25.794Z,99906.03
2019-01-28T10:54:29.277Z,99910.64
2019-01-28T10:57:39.979Z,99905.16
2019-01-28T11:00:47.572Z,99903.27
2019-01-28T11:03:51.285Z,99907.72
2019-01-28T11:06:55.051Z,99902.86
2019-01-28T11:10:06.247Z,99907.18
2019-01-28T11:13:09.977Z,99895.43
2019-01-28T11:16:13.681Z,99896.85
2019-01-28T11:19:18.819Z,99893.69
2019-01-28T11:29:25.946Z,99901.99
2019-01-28T11:32:29.567Z,99903.54
2019-01-28T11:35:35.682Z,99896.41
2019-01-28T11:38:39.084Z,99901.27
2019-01-28T11:41:44.786Z,99908.39
2019-01-28T11:44:48.476Z,99908.29
2019-01-28T11:47:52.327Z,99905.50
2019-01-28T11:50:56.361Z,99908.89
2019-01-28T11:57:33.227Z,99913.58
2019-01-28T12:00:44.495Z,99907.99
2019-01-28T12:03:48.057Z,99920.92
2019-01-28T12:06:51.935Z,99918.42
2019-01-28T12:09:55.709Z,99921.22
2019-01-28T12:12:59.288Z,99921.75
2019-01-28T12:16:02.963Z,99924.59
2019-01-28T12:19:13.759Z,99923.63
2019-01-28T12:22:10.140Z,99927.19
2019-01-28T12:25:13.742Z,99934.39
2019-01-28T12:28:17.374Z,99927.46
2019-01-28T12:31:20.937Z,99937.36
2019-01-28T12:34:24.514Z,99934.06
2019-01-28T12:37:28.092Z,99942.54
2019-01-28T12:40:31.621Z,99944.75
2019-01-28T12:43:35.980Z,99959.58
2019-01-28T12:46:39.611Z,99953.30
2019-01-28T12:49:43.153Z,99957.46
2019-01-28T12:52:47.022Z,99953.69
2019-01-28T12:55:51.346Z,99957.54
2019-01-28T12:58:55.005Z,99963.00
2019-01-28T13:01:59.023Z,99967.44
2019-01-28T13:05:02.624Z,99962.04
2019-01-28T13:08:07.422Z,99967.32
2019-01-28T13:11:10.947Z,99979.93
2019-01-28T13:14:15.288Z,99983.82
2019-01-28T13:20:54.038Z,99982.08
2019-01-28T13:23:57.964Z,99987.18
2019-01-28T13:27:02.915Z,99991.62
2019-01-28T13:30:09.026Z,99996.32
2019-01-28T13:33:14.811Z,99994.98
2019-01-28T13:36:18.571Z,99999.79
2019-01-28T13:39:24.031Z,100002.63
2019-01-28T13:42:26.997Z,100004.44
2019-01-28T13:45:30.725Z,100010.94
2019-01-28T13:48:34.284Z,100016.22
2019-01-28T13:55:09.389Z,100023.59
2019-01-28T13:58:12.981Z,100033.42
2019-01-28T14:01:16.834Z,100039.34
2019-01-28T14:04:20.464Z,100034.47
2019-01-28T14:07:24.221Z,100043.57
2019-01-28T14:10:27.979Z,100052.33
2019-01-28T14:13:31.710Z,100051.14
2019-01-28T14:16:35.322Z,100055.86
2019-01-28T14:19:46.053Z,100059.11
2019-01-28T14:22:42.524Z,100064.61
2019-01-28T14:25:45.998Z,100075.48
2019-01-28T14:28:49.476Z,100077.91
2019-01-28T14:31:54.027Z,100076.80
2019-01-28T14:34:57.825Z,100087.06
2019-01-28T14:38:01.372Z,100098.29
2019-01-28T14:41:04.980Z,100091.72
2019-01-28T14:44:08.597Z,100107.98
2019-01-28T14:47:12.245Z,100107.15
2019-01-28T14:50:19.487Z,100109.96
2019-01-28T14:53:23.116Z,100113.81
2019-01-28T14:56:26.691Z,100124.63
2019-01-28T14:59:30.359Z,100133.93
2019-01-28T15:02:34.012Z,100137.60
2019-01-28T15:05:37.855Z,100142.47
2019-01-28T15:08:41.647Z,100143.17
2019-01-28T15:11:45.304Z,100147.08
2019-01-28T15:14:48.938Z,100147.97
2019-01-28T15:17:52.528Z,100159.44
2019-01-28T15:20:56.106Z,100165.06
2019-01-28T15:23:59.724Z,100173.44
2019-01-28T15:27:03.330Z,100177.34
2019-01-28T15:30:12.043Z,100188.81
2019-01-28T15:33:15.699Z,100188.52
2019-01-28T15:36:19.376Z,100194.72
2019-01-28T15:39:22.970Z,100199.97
2019-01-28T15:42:30.187Z,100205.69
2019-01-28T15:45:38.160Z,100212.76
2019-01-28T15:48:41.804Z,100216.96
2019-01-28T15:51:45.338Z,100224.72
2019-01-28T15:54:49.050Z,100225.19
2019-01-28T15:57:52.744Z,100234.54
2019-01-28T16:00:56.435Z,100231.05
2019-01-28T16:04:00.038Z,100237.72
2019-01-28T16:07:03.618Z,100239.92
2019-01-28T16:10:09.721Z,100246.11
2019-01-28T16:13:13.311Z,100248.76
2019-01-28T16:16:16.936Z,100253.88
2019-01-28T16:19:20.632Z,100267.26
2019-01-28T16:22:24.283Z,100273.86
2019-01-28T16:25:27.926Z,100271.86
2019-01-28T16:28:31.542Z,100282.20
2019-01-28T16:31:35.201Z,100288.54
2019-01-28T16:34:38.895Z,100292.78
2019-01-28T16:37:42.416Z,100290.16
2019-01-28T16:40:46.103Z,100299.45
2019-01-28T16:43:49.728Z,100309.92
2019-01-28T16:46:53.322Z,100315.30
2019-01-28T16:49:56.925Z,100317.83
2019-01-28T16:53:00.996Z,100327.75
2019-01-28T16:56:04.841Z,100331.75
2019-01-28T16:59:09.012Z,100336.20
2019-01-28T17:02:12.659Z,100341.55
2019-01-28T17:05:17.261Z,100341.98
2019-01-28T17:08:20.874Z,100353.14
2019-01-28T17:11:24.470Z,100355.75
2019-01-28T17:14:28.047Z,100360.99
2019-01-28T17:17:31.735Z,100372.26
2019-01-28T17:20:36.000Z,100375.07
2019-01-28T17:23:39.176Z,100380.07
2019-01-28T17:26:42.764Z,100389.64
2019-01-28T17:29:46.371Z,100398.80
2019-01-28T17:32:50.135Z,100394.11
2019-01-28T17:35:53.749Z,100390.83
2019-01-28T17:38:57.471Z,100398.29
2019-01-28T17:42:01.173Z,100402.85
2019-01-28T17:45:05.187Z,100402.35
2019-01-28T17:48:09.178Z,100400.71
2019-01-28T17:51:12.670Z,100406.17
2019-01-28T17:54:16.182Z,100416.88
2019-01-28T17:57:19.755Z,100419.88
2019-01-28T18:00:30.142Z,100424.52
2019-01-28T18:03:33.479Z,100429.42
2019-01-28T18:06:37.157Z,100445.71
2019-01-28T18:09:40.748Z,100454.19
2019-01-28T18:12:44.325Z,100457.94
2019-01-28T18:15:47.951Z,100459.25
2019-01-28T18:18:51.660Z,100474.44
2019-01-28T18:21:55.293Z,100478.62
2019-01-28T18:24:58.881Z,100483.15
2019-01-28T18:28:02.745Z,100490.69
2019-01-28T18:31:06.334Z,100493.87
2019-01-28T18:34:09.946Z,100498.37
2019-01-28T18:37:14.079Z,100505.18
2019-01-28T18:40:17.809Z,100510.97
2019-01-28T18:43:21.431Z,100511.25
2019-01-28T18:46:25.139Z,100518.19
2019-01-28T18:49:28.750Z,100525.13
2019-01-28T18:52:32.383Z,100534.70
2019-01-28T18:55:36.112Z,100540.34
2019-01-28T18:58:39.795Z,100548.78
2019-01-28T19:01:43.354Z,100549.13
2019-01-28T19:04:46.897Z,100556.93
2019-01-28T19:07:54.526Z,100559.00
2019-01-28T19:11:03.107Z,100564.24
2019-01-28T19:14:20.676Z,100570.97
2019-01-28T19:17:37.235Z,100579.96
2019-01-28T19:20:46.014Z,100591.40
2019-01-28T19:23:49.591Z,100600.00
2019-01-28T19:26:53.166Z,100607.04
2019-01-28T19:29:56.793Z,100610.72
2019-01-28T19:33:00.768Z,100617.92
2019-01-28T19:36:04.513Z,100626.05
2019-01-28T19:39:09.299Z,100634.48
2019-01-28T19:42:12.925Z,100639.06
2019-01-28T19:45:18.707Z,100646.24
2019-01-28T19:48:22.321Z,100652.88
2019-01-28T19:51:26.357Z,100663.11
2019-01-28T19:54:32.630Z,100665.77
2019-01-28T19:57:36.216Z,100669.29
2019-01-28T20:00:39.902Z,100673.01
2019-01-28T20:03:45.599Z,100686.18
2019-01-28T20:06:49.340Z,100687.19
2019-01-28T20:09:53.019Z,100700.45
2019-01-28T20:16:28.903Z,100711.44
2019-01-28T20:19:32.605Z,100711.35
2019-01-28T20:22:36.141Z,100727.21
2019-01-28T20:25:39.710Z,100724.02
2019-01-28T20:28:43.180Z,100731.25
2019-01-28T20:31:46.671Z,100740.10
2019-01-28T20:34:50.145Z,100747.53
2019-01-28T20:37:53.647Z,100752.63
2019-01-28T20:40:57.261Z,100763.29
2019-01-28T20:44:00.683Z,100771.58
2019-01-28T20:47:04.275Z,100776.94
2019-01-28T20:50:11.158Z,100773.91
2019-01-28T20:53:14.588Z,100785.67
2019-01-28T20:56:18.030Z,100786.21
2019-01-28T20:59:21.376Z,100789.03
2019-01-28T21:02:24.779Z,100797.10
2019-01-28T21:05:28.373Z,100807.22
2019-01-28T21:08:31.933Z,100811.97
2019-01-28T21:11:35.519Z,100819.48
2019-01-28T21:14:39.182Z,100825.02
2019-01-28T21:17:42.711Z,100835.12
2019-01-28T21:20:46.335Z,100837.95
2019-01-28T21:23:49.972Z,100842.67
2019-01-28T21:26:53.545Z,100842.11
2019-01-28T21:29:57.259Z,100843.87
2019-01-28T21:33:00.886Z,100845.97
2019-01-28T21:36:09.711Z,100849.30
2019-01-28T21:39:15.019Z,100851.10
2019-01-28T21:42:18.897Z,100854.58
2019-01-28T21:45:22.511Z,100843.49
2019-01-28T21:48:26.371Z,100858.75
2019-01-28T21:51:30.344Z,100854.77
2019-01-28T21:54:34.039Z,100857.10
2019-01-28T21:57:37.666Z,100851.56
2019-01-28T22:00:41.575Z,100855.49
2019-01-28T22:03:45.247Z,100858.03
2019-01-28T22:06:49.893Z,100862.86
2019-01-28T22:09:53.465Z,100867.65
2019-01-28T22:12:58.025Z,100872.25
2019-01-28T22:16:01.707Z,100875.75
2019-01-28T22:19:05.411Z,100874.43
2019-01-28T22:22:09.013Z,100879.16
2019-01-28T22:25:13.007Z,100882.70
2019-01-28T22:28:16.745Z,100882.90
2019-01-28T22:31:20.408Z,100887.81
2019-01-28T22:34:24.045Z,100890.11
2019-01-28T22:37:27.696Z,100893.87
2019-01-28T22:40:31.316Z,100896.50
2019-01-28T22:43:34.867Z,100898.10
2019-01-28T22:46:38.479Z,100898.96
2019-01-28T22:49:42.089Z,100900.41
2019-01-28T22:52:45.804Z,100906.71
2019-01-28T22:55:49.430Z,100913.10
2019-01-28T22:58:53.153Z,100912.99
2019-01-28T23:01:56.805Z,100917.71
2019-01-28T23:05:01.434Z,100920.23
2019-01-28T23:08:05.155Z,100925.24
2019-01-28T23:11:08.868Z,100930.46
2019-01-28T23:14:12.487Z,100933.25
2019-01-28T23:17:16.133Z,100936.89
2019-01-28T23:20:19.704Z,100940.95
2019-01-28T23:23:23.797Z,100944.29
2019-01-28T23:26:26.901Z,100946.16
2019-01-28T23:29:30.471Z,100949.90
2019-01-28T23:32:34.100Z,100952.16
2019-01-28T23:35:37.807Z,100953.69
2019-01-28T23:38:41.667Z,100957.70
2019-01-28T23:41:45.244Z,100958.02
2019-01-28T23:44:48.751Z,100957.64
2019-01-28T23:47:52.362Z,100958.47
2019-01-28T23:50:55.955Z,100964.57
2019-01-28T23:53:59.535Z,100966.81
2019-01-28T23:57:03.147Z,100973.47
